LIRN/NAP METAR and TAF weather

Enter ICAO airport designator
Station Type Date Time Source
LIRN METAR 2021/09/27 07:50 UTC NOAA

LIRN 270750Z VRB01KT 8000 NSC 23/19 Q1018 NOSIG


Station Type Date Time Source
LIRN Decoded METAR 2021/09/27 07:50 UTC NOAA

Napoli / Capodichino, Italy (LIRN) 40-51N 014-18E 72M
Sep 27, 2021 - 03:50 AM EDT / 2021.09.27 0750 UTC
Wind: Variable at 1 MPH (1 KT):0
Visibility: 4 mile(s):0
Temperature: 73 F (23 C)
Dew Point: 66 F (19 C)
Relative Humidity: 78%
Pressure (altimeter): 30.06 in. Hg (1018 hPa)
ob: LIRN 270750Z VRB01KT 8000 NSC 23/19 Q1018 NOSIG
cycle: 8

Station Type Date Time Source
LIRN TAF 2021/09/27 06:21 UTC NOAA

TAF TAF LIRN 270500Z 2706/2806 VRB04KT 9999 FEW040
BECMG 2709/2711 19010KT
TEMPO 2714/2723 TSRA
BECMG 2716/2718 VRB05KT

Example: see airport list